sensor_id;sensor_type;location;lat;lon;timestamp;P1;durP1;ratioP1;P2;durP2;ratioP2
3155;SDS011;1588;50.892;7.082;2023-07-29T00:01:06;10.13;;;2.83;;
3155;SDS011;1588;50.892;7.082;2023-07-29T00:06:09;5.03;;;2.37;;
3155;SDS011;1588;50.892;7.082;2023-07-29T00:11:13;6.30;;;2.50;;
3155;SDS011;1588;50.892;7.082;2023-07-29T00:16:19;3.00;;;2.60;;
3155;SDS011;1588;50.892;7.082;2023-07-29T00:21:23;3.33;;;2.27;;
3155;SDS011;1588;50.892;7.082;2023-07-29T00:26:26;2.57;;;2.37;;
3155;SDS011;1588;50.892;7.082;2023-07-29T00:31:44;5.03;;;3.03;;
3155;SDS011;1588;50.892;7.082;2023-07-29T00:37:01;6.17;;;3.10;;
3155;SDS011;1588;50.892;7.082;2023-07-29T00:47:37;3.70;;;2.37;;
3155;SDS011;1588;50.892;7.082;2023-07-29T00:52:57;4.77;;;3.00;;
3155;SDS011;1588;50.892;7.082;2023-07-29T00:58:23;3.10;;;2.80;;
3155;SDS011;1588;50.892;7.082;2023-07-29T01:03:35;3.07;;;2.50;;
3155;SDS011;1588;50.892;7.082;2023-07-29T01:08:45;6.90;;;3.33;;
3155;SDS011;1588;50.892;7.082;2023-07-29T01:13:57;3.30;;;2.70;;
3155;SDS011;1588;50.892;7.082;2023-07-29T01:19:13;3.73;;;2.70;;
3155;SDS011;1588;50.892;7.082;2023-07-29T01:24:29;3.50;;;2.87;;
3155;SDS011;1588;50.892;7.082;2023-07-29T01:29:32;11.23;;;3.00;;
3155;SDS011;1588;50.892;7.082;2023-07-29T01:34:38;3.50;;;3.00;;
3155;SDS011;1588;50.892;7.082;2023-07-29T01:39:45;12.77;;;3.17;;
3155;SDS011;1588;50.892;7.082;2023-07-29T01:44:47;4.10;;;3.70;;
3155;SDS011;1588;50.892;7.082;2023-07-29T01:49:50;7.13;;;3.20;;
3155;SDS011;1588;50.892;7.082;2023-07-29T01:54:54;8.57;;;3.30;;
3155;SDS011;1588;50.892;7.082;2023-07-29T01:59:59;3.50;;;3.20;;
3155;SDS011;1588;50.892;7.082;2023-07-29T02:05:02;6.20;;;3.07;;
3155;SDS011;1588;50.892;7.082;2023-07-29T02:10:06;4.17;;;3.53;;
3155;SDS011;1588;50.892;7.082;2023-07-29T02:15:09;19.87;;;4.30;;
3155;SDS011;1588;50.892;7.082;2023-07-29T02:20:12;4.53;;;3.47;;
3155;SDS011;1588;50.892;7.082;2023-07-29T02:25:16;11.70;;;3.50;;
3155;SDS011;1588;50.892;7.082;2023-07-29T02:30:18;3.60;;;3.20;;
3155;SDS011;1588;50.892;7.082;2023-07-29T02:35:22;9.80;;;3.43;;
3155;SDS011;1588;50.892;7.082;2023-07-29T02:40:26;4.50;;;3.20;;
3155;SDS011;1588;50.892;7.082;2023-07-29T02:45:29;4.73;;;3.40;;
3155;SDS011;1588;50.892;7.082;2023-07-29T02:50:32;10.00;;;3.60;;
3155;SDS011;1588;50.892;7.082;2023-07-29T02:55:40;4.40;;;3.00;;
3155;SDS011;1588;50.892;7.082;2023-07-29T03:00:43;4.67;;;3.20;;
3155;SDS011;1588;50.892;7.082;2023-07-29T03:05:45;3.50;;;3.10;;
3155;SDS011;1588;50.892;7.082;2023-07-29T03:10:49;9.60;;;2.90;;
3155;SDS011;1588;50.892;7.082;2023-07-29T03:15:51;3.37;;;3.07;;
3155;SDS011;1588;50.892;7.082;2023-07-29T03:20:55;3.47;;;3.17;;
3155;SDS011;1588;50.892;7.082;2023-07-29T03:25:59;6.23;;;3.30;;
3155;SDS011;1588;50.892;7.082;2023-07-29T03:31:02;8.10;;;3.70;;
3155;SDS011;1588;50.892;7.082;2023-07-29T03:36:04;4.90;;;3.60;;
3155;SDS011;1588;50.892;7.082;2023-07-29T03:41:08;5.67;;;4.43;;
3155;SDS011;1588;50.892;7.082;2023-07-29T03:46:11;4.10;;;3.60;;
3155;SDS011;1588;50.892;7.082;2023-07-29T03:51:14;5.30;;;3.50;;
3155;SDS011;1588;50.892;7.082;2023-07-29T03:56:18;3.57;;;3.27;;
3155;SDS011;1588;50.892;7.082;2023-07-29T04:01:20;4.60;;;3.70;;
3155;SDS011;1588;50.892;7.082;2023-07-29T04:06:22;4.07;;;3.67;;
3155;SDS011;1588;50.892;7.082;2023-07-29T04:11:27;12.67;;;4.20;;
3155;SDS011;1588;50.892;7.082;2023-07-29T04:16:29;11.60;;;4.00;;
3155;SDS011;1588;50.892;7.082;2023-07-29T04:21:32;11.27;;;4.50;;
3155;SDS011;1588;50.892;7.082;2023-07-29T04:26:36;4.80;;;3.73;;
3155;SDS011;1588;50.892;7.082;2023-07-29T04:31:39;5.10;;;4.00;;
3155;SDS011;1588;50.892;7.082;2023-07-29T04:36:43;7.93;;;3.80;;
3155;SDS011;1588;50.892;7.082;2023-07-29T04:41:46;6.87;;;3.80;;
3155;SDS011;1588;50.892;7.082;2023-07-29T04:46:49;6.47;;;3.97;;
3155;SDS011;1588;50.892;7.082;2023-07-29T04:51:51;5.43;;;3.90;;
3155;SDS011;1588;50.892;7.082;2023-07-29T04:56:55;14.00;;;3.33;;
3155;SDS011;1588;50.892;7.082;2023-07-29T05:01:57;11.07;;;3.77;;
3155;SDS011;1588;50.892;7.082;2023-07-29T05:07:00;4.70;;;4.03;;
3155;SDS011;1588;50.892;7.082;2023-07-29T05:12:04;6.77;;;3.80;;
3155;SDS011;1588;50.892;7.082;2023-07-29T05:17:07;7.50;;;4.30;;
3155;SDS011;1588;50.892;7.082;2023-07-29T05:22:10;5.30;;;4.67;;
3155;SDS011;1588;50.892;7.082;2023-07-29T05:27:14;4.83;;;3.80;;
3155;SDS011;1588;50.892;7.082;2023-07-29T05:32:16;8.13;;;4.90;;
3155;SDS011;1588;50.892;7.082;2023-07-29T05:37:18;14.10;;;4.80;;
3155;SDS011;1588;50.892;7.082;2023-07-29T05:42:22;15.00;;;5.63;;
3155;SDS011;1588;50.892;7.082;2023-07-29T05:47:25;7.67;;;4.67;;
3155;SDS011;1588;50.892;7.082;2023-07-29T05:52:27;5.10;;;3.97;;
3155;SDS011;1588;50.892;7.082;2023-07-29T05:57:31;4.87;;;3.90;;
3155;SDS011;1588;50.892;7.082;2023-07-29T06:02:33;6.57;;;4.57;;
3155;SDS011;1588;50.892;7.082;2023-07-29T06:07:36;6.07;;;4.43;;
3155;SDS011;1588;50.892;7.082;2023-07-29T06:12:40;7.03;;;4.67;;
3155;SDS011;1588;50.892;7.082;2023-07-29T06:17:42;5.63;;;4.40;;
3155;SDS011;1588;50.892;7.082;2023-07-29T06:22:44;10.40;;;4.63;;
3155;SDS011;1588;50.892;7.082;2023-07-29T06:27:49;7.60;;;4.10;;
3155;SDS011;1588;50.892;7.082;2023-07-29T06:32:57;5.80;;;4.07;;
3155;SDS011;1588;50.892;7.082;2023-07-29T06:38:00;4.37;;;3.70;;
3155;SDS011;1588;50.892;7.082;2023-07-29T06:43:03;6.20;;;4.07;;
3155;SDS011;1588;50.892;7.082;2023-07-29T06:48:06;5.93;;;4.00;;
3155;SDS011;1588;50.892;7.082;2023-07-29T06:53:08;4.90;;;3.47;;
3155;SDS011;1588;50.892;7.082;2023-07-29T06:58:12;11.53;;;3.80;;
3155;SDS011;1588;50.892;7.082;2023-07-29T07:03:15;11.33;;;3.70;;
3155;SDS011;1588;50.892;7.082;2023-07-29T07:08:18;6.73;;;4.20;;
3155;SDS011;1588;50.892;7.082;2023-07-29T07:13:22;3.97;;;3.30;;
3155;SDS011;1588;50.892;7.082;2023-07-29T07:18:24;3.23;;;2.93;;
3155;SDS011;1588;50.892;7.082;2023-07-29T07:23:30;3.10;;;2.70;;
3155;SDS011;1588;50.892;7.082;2023-07-29T07:28:33;4.40;;;2.87;;
3155;SDS011;1588;50.892;7.082;2023-07-29T07:33:37;5.00;;;3.07;;
3155;SDS011;1588;50.892;7.082;2023-07-29T07:38:53;11.50;;;3.03;;
3155;SDS011;1588;50.892;7.082;2023-07-29T07:43:56;4.27;;;3.60;;
3155;SDS011;1588;50.892;7.082;2023-07-29T07:49:01;3.90;;;3.50;;
3155;SDS011;1588;50.892;7.082;2023-07-29T07:54:03;6.47;;;3.83;;
3155;SDS011;1588;50.892;7.082;2023-07-29T07:59:14;4.83;;;3.40;;
3155;SDS011;1588;50.892;7.082;2023-07-29T08:04:17;7.10;;;4.33;;
3155;SDS011;1588;50.892;7.082;2023-07-29T08:09:19;6.13;;;4.00;;
3155;SDS011;1588;50.892;7.082;2023-07-29T08:14:23;7.23;;;3.00;;
3155;SDS011;1588;50.892;7.082;2023-07-29T08:19:29;8.23;;;3.23;;
3155;SDS011;1588;50.892;7.082;2023-07-29T08:24:41;3.30;;;2.80;;
3155;SDS011;1588;50.892;7.082;2023-07-29T08:30:13;5.37;;;2.60;;
3155;SDS011;1588;50.892;7.082;2023-07-29T08:35:20;6.67;;;2.77;;
3155;SDS011;1588;50.892;7.082;2023-07-29T08:40:23;2.73;;;2.07;;
3155;SDS011;1588;50.892;7.082;2023-07-29T08:45:32;2.63;;;1.97;;
3155;SDS011;1588;50.892;7.082;2023-07-29T08:50:37;2.03;;;1.77;;
3155;SDS011;1588;50.892;7.082;2023-07-29T08:55:40;6.03;;;1.80;;
3155;SDS011;1588;50.892;7.082;2023-07-29T09:00:44;12.67;;;2.17;;
3155;SDS011;1588;50.892;7.082;2023-07-29T09:05:48;2.60;;;1.90;;
3155;SDS011;1588;50.892;7.082;2023-07-29T09:10:50;3.10;;;2.00;;
3155;SDS011;1588;50.892;7.082;2023-07-29T09:15:57;1.90;;;1.70;;
3155;SDS011;1588;50.892;7.082;2023-07-29T09:21:00;2.20;;;1.97;;
3155;SDS011;1588;50.892;7.082;2023-07-29T09:26:03;2.20;;;2.00;;
3155;SDS011;1588;50.892;7.082;2023-07-29T09:31:08;2.97;;;2.23;;
3155;SDS011;1588;50.892;7.082;2023-07-29T09:36:21;2.20;;;2.00;;
3155;SDS011;1588;50.892;7.082;2023-07-29T09:41:24;2.97;;;2.10;;
3155;SDS011;1588;50.892;7.082;2023-07-29T09:46:31;2.47;;;2.27;;
3155;SDS011;1588;50.892;7.082;2023-07-29T09:51:44;7.80;;;3.50;;
3155;SDS011;1588;50.892;7.082;2023-07-29T09:56:47;4.33;;;2.87;;
3155;SDS011;1588;50.892;7.082;2023-07-29T10:01:52;2.03;;;1.83;;
3155;SDS011;1588;50.892;7.082;2023-07-29T10:06:56;3.00;;;2.20;;
3155;SDS011;1588;50.892;7.082;2023-07-29T10:12:01;1.80;;;1.67;;
3155;SDS011;1588;50.892;7.082;2023-07-29T10:17:07;4.20;;;1.63;;
3155;SDS011;1588;50.892;7.082;2023-07-29T10:22:16;2.50;;;1.73;;
3155;SDS011;1588;50.892;7.082;2023-07-29T10:27:23;7.63;;;2.37;;
3155;SDS011;1588;50.892;7.082;2023-07-29T10:32:30;3.57;;;2.10;;
3155;SDS011;1588;50.892;7.082;2023-07-29T10:37:42;3.70;;;2.03;;
3155;SDS011;1588;50.892;7.082;2023-07-29T10:42:59;2.70;;;2.20;;
3155;SDS011;1588;50.892;7.082;2023-07-29T10:48:06;8.77;;;3.00;;
3155;SDS011;1588;50.892;7.082;2023-07-29T10:53:12;2.67;;;2.00;;
3155;SDS011;1588;50.892;7.082;2023-07-29T10:58:15;1.83;;;1.73;;
3155;SDS011;1588;50.892;7.082;2023-07-29T11:03:19;2.97;;;2.27;;
3155;SDS011;1588;50.892;7.082;2023-07-29T11:08:26;7.87;;;2.40;;
3155;SDS011;1588;50.892;7.082;2023-07-29T11:13:30;4.07;;;2.23;;
3155;SDS011;1588;50.892;7.082;2023-07-29T11:18:35;4.13;;;2.20;;
3155;SDS011;1588;50.892;7.082;2023-07-29T11:23:38;3.63;;;2.20;;
3155;SDS011;1588;50.892;7.082;2023-07-29T11:28:40;2.90;;;2.40;;
3155;SDS011;1588;50.892;7.082;2023-07-29T11:33:50;7.30;;;2.70;;
3155;SDS011;1588;50.892;7.082;2023-07-29T11:38:52;1.93;;;1.80;;
3155;SDS011;1588;50.892;7.082;2023-07-29T11:43:55;4.03;;;2.70;;
3155;SDS011;1588;50.892;7.082;2023-07-29T11:48:59;2.77;;;2.00;;
3155;SDS011;1588;50.892;7.082;2023-07-29T11:54:03;3.20;;;2.90;;
3155;SDS011;1588;50.892;7.082;2023-07-29T11:59:06;6.97;;;2.50;;
3155;SDS011;1588;50.892;7.082;2023-07-29T12:04:10;2.70;;;2.50;;
3155;SDS011;1588;50.892;7.082;2023-07-29T12:09:13;7.33;;;2.87;;
3155;SDS011;1588;50.892;7.082;2023-07-29T12:14:16;2.90;;;2.43;;
3155;SDS011;1588;50.892;7.082;2023-07-29T12:19:20;4.30;;;2.37;;
3155;SDS011;1588;50.892;7.082;2023-07-29T12:24:23;4.20;;;2.30;;
3155;SDS011;1588;50.892;7.082;2023-07-29T12:29:39;3.57;;;2.17;;
3155;SDS011;1588;50.892;7.082;2023-07-29T12:34:45;1.60;;;1.50;;
3155;SDS011;1588;50.892;7.082;2023-07-29T12:39:49;44.47;;;9.53;;
3155;SDS011;1588;50.892;7.082;2023-07-29T12:44:55;2.10;;;1.90;;
3155;SDS011;1588;50.892;7.082;2023-07-29T12:50:07;1.93;;;1.73;;
3155;SDS011;1588;50.892;7.082;2023-07-29T12:55:10;2.00;;;1.77;;
3155;SDS011;1588;50.892;7.082;2023-07-29T13:00:14;2.30;;;1.60;;
3155;SDS011;1588;50.892;7.082;2023-07-29T13:05:24;1.80;;;1.70;;
3155;SDS011;1588;50.892;7.082;2023-07-29T13:10:26;2.70;;;1.90;;
3155;SDS011;1588;50.892;7.082;2023-07-29T13:15:29;1.83;;;1.73;;
3155;SDS011;1588;50.892;7.082;2023-07-29T13:20:33;3.97;;;2.00;;
3155;SDS011;1588;50.892;7.082;2023-07-29T13:25:38;2.10;;;1.90;;
3155;SDS011;1588;50.892;7.082;2023-07-29T13:30:40;2.43;;;1.60;;
3155;SDS011;1588;50.892;7.082;2023-07-29T13:35:44;2.90;;;1.77;;
3155;SDS011;1588;50.892;7.082;2023-07-29T13:40:46;3.20;;;2.07;;
3155;SDS011;1588;50.892;7.082;2023-07-29T13:45:54;2.17;;;2.00;;
3155;SDS011;1588;50.892;7.082;2023-07-29T13:51:01;2.17;;;1.97;;
3155;SDS011;1588;50.892;7.082;2023-07-29T13:56:13;3.43;;;2.37;;
3155;SDS011;1588;50.892;7.082;2023-07-29T14:01:19;7.23;;;2.00;;
3155;SDS011;1588;50.892;7.082;2023-07-29T14:06:23;4.10;;;2.70;;
3155;SDS011;1588;50.892;7.082;2023-07-29T14:11:25;3.67;;;2.50;;
3155;SDS011;1588;50.892;7.082;2023-07-29T14:16:28;3.10;;;2.73;;
3155;SDS011;1588;50.892;7.082;2023-07-29T14:21:32;6.33;;;2.57;;
3155;SDS011;1588;50.892;7.082;2023-07-29T14:26:34;3.20;;;2.20;;
3155;SDS011;1588;50.892;7.082;2023-07-29T14:31:37;4.53;;;2.47;;
3155;SDS011;1588;50.892;7.082;2023-07-29T14:36:41;3.87;;;2.87;;
3155;SDS011;1588;50.892;7.082;2023-07-29T14:41:44;5.10;;;2.90;;
3155;SDS011;1588;50.892;7.082;2023-07-29T14:46:47;3.80;;;2.27;;
3155;SDS011;1588;50.892;7.082;2023-07-29T14:51:51;2.90;;;2.60;;
3155;SDS011;1588;50.892;7.082;2023-07-29T14:56:53;3.77;;;2.60;;
3155;SDS011;1588;50.892;7.082;2023-07-29T15:01:56;2.90;;;2.40;;
3155;SDS011;1588;50.892;7.082;2023-07-29T15:07:01;3.23;;;2.50;;
3155;SDS011;1588;50.892;7.082;2023-07-29T15:12:05;2.30;;;2.10;;
3155;SDS011;1588;50.892;7.082;2023-07-29T15:17:08;2.90;;;2.67;;
3155;SDS011;1588;50.892;7.082;2023-07-29T15:22:12;2.63;;;2.43;;
3155;SDS011;1588;50.892;7.082;2023-07-29T15:27:14;2.80;;;2.30;;
3155;SDS011;1588;50.892;7.082;2023-07-29T15:32:20;7.00;;;3.10;;
3155;SDS011;1588;50.892;7.082;2023-07-29T15:37:26;2.80;;;2.27;;
3155;SDS011;1588;50.892;7.082;2023-07-29T15:42:29;2.10;;;2.00;;
3155;SDS011;1588;50.892;7.082;2023-07-29T15:47:31;2.73;;;2.50;;
3155;SDS011;1588;50.892;7.082;2023-07-29T15:52:46;2.30;;;2.10;;
3155;SDS011;1588;50.892;7.082;2023-07-29T15:57:49;2.10;;;1.90;;
3155;SDS011;1588;50.892;7.082;2023-07-29T16:02:53;2.30;;;2.10;;
3155;SDS011;1588;50.892;7.082;2023-07-29T16:08:02;2.63;;;2.43;;
3155;SDS011;1588;50.892;7.082;2023-07-29T16:13:05;4.40;;;2.67;;
3155;SDS011;1588;50.892;7.082;2023-07-29T16:18:08;5.33;;;2.90;;
3155;SDS011;1588;50.892;7.082;2023-07-29T16:23:12;3.10;;;2.73;;
3155;SDS011;1588;50.892;7.082;2023-07-29T16:28:15;6.13;;;2.90;;
3155;SDS011;1588;50.892;7.082;2023-07-29T16:33:17;2.90;;;2.50;;
3155;SDS011;1588;50.892;7.082;2023-07-29T16:38:21;3.83;;;2.97;;
3155;SDS011;1588;50.892;7.082;2023-07-29T16:43:24;2.90;;;2.70;;
3155;SDS011;1588;50.892;7.082;2023-07-29T16:48:27;2.80;;;2.53;;
3155;SDS011;1588;50.892;7.082;2023-07-29T16:53:33;3.37;;;2.83;;
3155;SDS011;1588;50.892;7.082;2023-07-29T16:58:36;4.53;;;2.50;;
3155;SDS011;1588;50.892;7.082;2023-07-29T17:03:43;4.83;;;3.60;;
3155;SDS011;1588;50.892;7.082;2023-07-29T17:09:05;5.13;;;3.77;;
3155;SDS011;1588;50.892;7.082;2023-07-29T17:14:08;4.10;;;2.80;;
3155;SDS011;1588;50.892;7.082;2023-07-29T17:19:10;3.00;;;2.70;;
3155;SDS011;1588;50.892;7.082;2023-07-29T17:24:17;7.37;;;3.90;;
3155;SDS011;1588;50.892;7.082;2023-07-29T17:29:20;6.50;;;3.30;;
3155;SDS011;1588;50.892;7.082;2023-07-29T17:34:26;3.93;;;3.00;;
3155;SDS011;1588;50.892;7.082;2023-07-29T17:39:30;3.50;;;2.90;;
3155;SDS011;1588;50.892;7.082;2023-07-29T17:44:33;5.30;;;2.90;;
3155;SDS011;1588;50.892;7.082;2023-07-29T17:49:39;4.93;;;3.17;;
3155;SDS011;1588;50.892;7.082;2023-07-29T17:54:44;5.63;;;3.33;;
3155;SDS011;1588;50.892;7.082;2023-07-29T17:59:47;7.67;;;5.00;;
3155;SDS011;1588;50.892;7.082;2023-07-29T18:04:49;7.77;;;3.60;;
3155;SDS011;1588;50.892;7.082;2023-07-29T18:09:54;4.10;;;3.10;;
3155;SDS011;1588;50.892;7.082;2023-07-29T18:14:57;4.20;;;3.23;;
3155;SDS011;1588;50.892;7.082;2023-07-29T18:19:59;5.10;;;3.00;;
3155;SDS011;1588;50.892;7.082;2023-07-29T18:25:03;9.43;;;3.40;;
3155;SDS011;1588;50.892;7.082;2023-07-29T18:30:07;5.37;;;2.83;;
3155;SDS011;1588;50.892;7.082;2023-07-29T18:35:10;6.80;;;3.20;;
3155;SDS011;1588;50.892;7.082;2023-07-29T18:40:19;6.63;;;3.40;;
3155;SDS011;1588;50.892;7.082;2023-07-29T18:45:21;8.67;;;3.63;;
3155;SDS011;1588;50.892;7.082;2023-07-29T18:50:24;3.70;;;3.30;;
3155;SDS011;1588;50.892;7.082;2023-07-29T18:55:28;6.17;;;3.70;;
3155;SDS011;1588;50.892;7.082;2023-07-29T19:00:31;7.57;;;3.67;;
3155;SDS011;1588;50.892;7.082;2023-07-29T19:05:35;6.20;;;4.17;;
3155;SDS011;1588;50.892;7.082;2023-07-29T19:10:39;4.50;;;3.40;;
3155;SDS011;1588;50.892;7.082;2023-07-29T19:15:48;7.77;;;3.47;;
3155;SDS011;1588;50.892;7.082;2023-07-29T19:20:52;7.10;;;4.20;;
3155;SDS011;1588;50.892;7.082;2023-07-29T19:25:57;11.27;;;3.70;;
3155;SDS011;1588;50.892;7.082;2023-07-29T19:31:01;7.87;;;4.60;;
3155;SDS011;1588;50.892;7.082;2023-07-29T19:36:05;4.43;;;3.80;;
3155;SDS011;1588;50.892;7.082;2023-07-29T19:41:09;7.63;;;4.30;;
3155;SDS011;1588;50.892;7.082;2023-07-29T19:46:12;12.73;;;4.27;;
3155;SDS011;1588;50.892;7.082;2023-07-29T19:51:15;5.43;;;4.07;;
3155;SDS011;1588;50.892;7.082;2023-07-29T19:56:19;5.03;;;4.33;;
3155;SDS011;1588;50.892;7.082;2023-07-29T20:01:22;4.70;;;3.93;;
3155;SDS011;1588;50.892;7.082;2023-07-29T20:06:24;4.20;;;3.60;;
3155;SDS011;1588;50.892;7.082;2023-07-29T20:11:29;4.97;;;3.57;;
3155;SDS011;1588;50.892;7.082;2023-07-29T20:16:32;7.83;;;3.80;;
3155;SDS011;1588;50.892;7.082;2023-07-29T20:21:35;6.80;;;4.30;;
3155;SDS011;1588;50.892;7.082;2023-07-29T20:26:39;14.33;;;4.40;;
3155;SDS011;1588;50.892;7.082;2023-07-29T20:31:41;4.47;;;3.70;;
3155;SDS011;1588;50.892;7.082;2023-07-29T20:36:44;5.90;;;4.57;;
3155;SDS011;1588;50.892;7.082;2023-07-29T20:41:48;6.07;;;3.83;;
3155;SDS011;1588;50.892;7.082;2023-07-29T20:46:50;9.30;;;4.27;;
3155;SDS011;1588;50.892;7.082;2023-07-29T20:51:53;6.70;;;3.97;;
3155;SDS011;1588;50.892;7.082;2023-07-29T20:56:57;10.67;;;4.50;;
3155;SDS011;1588;50.892;7.082;2023-07-29T21:02:01;6.53;;;4.60;;
3155;SDS011;1588;50.892;7.082;2023-07-29T21:07:04;8.30;;;4.80;;
3155;SDS011;1588;50.892;7.082;2023-07-29T21:12:10;14.90;;;4.40;;
3155;SDS011;1588;50.892;7.082;2023-07-29T21:17:12;6.43;;;4.37;;
3155;SDS011;1588;50.892;7.082;2023-07-29T21:22:15;8.73;;;4.67;;
3155;SDS011;1588;50.892;7.082;2023-07-29T21:27:19;11.20;;;5.40;;
3155;SDS011;1588;50.892;7.082;2023-07-29T21:32:21;6.20;;;4.60;;
3155;SDS011;1588;50.892;7.082;2023-07-29T21:37:24;13.50;;;5.30;;
3155;SDS011;1588;50.892;7.082;2023-07-29T21:42:28;11.53;;;5.57;;
3155;SDS011;1588;50.892;7.082;2023-07-29T21:47:30;12.30;;;5.87;;
3155;SDS011;1588;50.892;7.082;2023-07-29T21:52:33;8.23;;;5.43;;
3155;SDS011;1588;50.892;7.082;2023-07-29T21:57:37;7.70;;;5.43;;
3155;SDS011;1588;50.892;7.082;2023-07-29T22:02:39;15.00;;;5.40;;
3155;SDS011;1588;50.892;7.082;2023-07-29T22:07:41;7.13;;;5.20;;
3155;SDS011;1588;50.892;7.082;2023-07-29T22:12:45;6.30;;;4.93;;
3155;SDS011;1588;50.892;7.082;2023-07-29T22:17:48;8.83;;;5.80;;
3155;SDS011;1588;50.892;7.082;2023-07-29T22:22:50;8.57;;;4.70;;
3155;SDS011;1588;50.892;7.082;2023-07-29T22:27:54;5.83;;;4.50;;
3155;SDS011;1588;50.892;7.082;2023-07-29T22:32:56;11.00;;;5.70;;
3155;SDS011;1588;50.892;7.082;2023-07-29T22:37:59;10.70;;;5.60;;
3155;SDS011;1588;50.892;7.082;2023-07-29T22:43:08;6.23;;;5.20;;
3155;SDS011;1588;50.892;7.082;2023-07-29T22:48:11;13.03;;;5.40;;
3155;SDS011;1588;50.892;7.082;2023-07-29T22:53:14;7.40;;;5.10;;
3155;SDS011;1588;50.892;7.082;2023-07-29T22:58:20;9.43;;;5.10;;
3155;SDS011;1588;50.892;7.082;2023-07-29T23:03:23;9.73;;;5.20;;
3155;SDS011;1588;50.892;7.082;2023-07-29T23:08:26;7.83;;;4.83;;
3155;SDS011;1588;50.892;7.082;2023-07-29T23:13:30;11.90;;;5.00;;
3155;SDS011;1588;50.892;7.082;2023-07-29T23:18:32;5.97;;;4.60;;
3155;SDS011;1588;50.892;7.082;2023-07-29T23:23:35;8.10;;;4.97;;
3155;SDS011;1588;50.892;7.082;2023-07-29T23:28:39;8.57;;;5.50;;
3155;SDS011;1588;50.892;7.082;2023-07-29T23:33:41;8.80;;;5.20;;
3155;SDS011;1588;50.892;7.082;2023-07-29T23:38:44;7.73;;;4.87;;
3155;SDS011;1588;50.892;7.082;2023-07-29T23:43:47;6.33;;;4.50;;
3155;SDS011;1588;50.892;7.082;2023-07-29T23:48:50;7.80;;;4.50;;
3155;SDS011;1588;50.892;7.082;2023-07-29T23:53:52;7.30;;;4.57;;
3155;SDS011;1588;50.892;7.082;2023-07-29T23:58:56;7.53;;;5.20;;
